sensor_id;sensor_type;location;lat;lon;timestamp;pressure;altitude;pressure_sealevel;temperature;humidity
56630;BME280;42502;40.732;-74.254;2023-03-15T00:01:53;99331.16;;;14.19;38.59
56630;BME280;42502;40.732;-74.254;2023-03-15T00:03:54;99340.63;;;14.18;38.38
56630;BME280;42502;40.732;-74.254;2023-03-15T00:06:13;99338.69;;;14.18;38.52
56630;BME280;42502;40.732;-74.254;2023-03-15T00:08:14;99341.78;;;14.17;38.53
56630;BME280;42502;40.732;-74.254;2023-03-15T00:10:15;99354.06;;;14.16;38.56
56630;BME280;42502;40.732;-74.254;2023-03-15T00:12:16;99352.41;;;14.15;38.68
56630;BME280;42502;40.732;-74.254;2023-03-15T00:14:17;99343.28;;;14.14;38.45
56630;BME280;42502;40.732;-74.254;2023-03-15T00:16:18;99338.06;;;14.13;38.28
56630;BME280;42502;40.732;-74.254;2023-03-15T00:18:19;99345.59;;;14.12;38.84
56630;BME280;42502;40.732;-74.254;2023-03-15T00:20:20;99346.06;;;14.14;38.58
56630;BME280;42502;40.732;-74.254;2023-03-15T00:22:21;99349.97;;;14.13;38.36
56630;BME280;42502;40.732;-74.254;2023-03-15T00:24:22;99339.56;;;14.10;38.62
56630;BME280;42502;40.732;-74.254;2023-03-15T00:26:23;99349.88;;;14.10;38.71
56630;BME280;42502;40.732;-74.254;2023-03-15T00:28:27;99352.31;;;14.11;38.57
56630;BME280;42502;40.732;-74.254;2023-03-15T00:30:31;99343.72;;;14.04;38.64
56630;BME280;42502;40.732;-74.254;2023-03-15T00:32:32;99344.31;;;14.10;38.30
56630;BME280;42502;40.732;-74.254;2023-03-15T00:34:33;99366.53;;;14.10;38.25
56630;BME280;42502;40.732;-74.254;2023-03-15T00:36:33;99357.75;;;14.08;38.48
56630;BME280;42502;40.732;-74.254;2023-03-15T00:38:42;99366.06;;;14.08;38.66
56630;BME280;42502;40.732;-74.254;2023-03-15T00:40:46;99358.88;;;14.07;38.64
56630;BME280;42502;40.732;-74.254;2023-03-15T00:42:46;99360.72;;;14.02;38.35
56630;BME280;42502;40.732;-74.254;2023-03-15T00:44:49;99358.09;;;14.06;38.27
56630;BME280;42502;40.732;-74.254;2023-03-15T00:46:50;99359.22;;;14.05;38.46
56630;BME280;42502;40.732;-74.254;2023-03-15T00:48:54;99372.31;;;14.04;38.38
56630;BME280;42502;40.732;-74.254;2023-03-15T00:51:05;99352.25;;;13.99;38.63
56630;BME280;42502;40.732;-74.254;2023-03-15T00:53:08;99351.22;;;14.03;38.53
56630;BME280;42502;40.732;-74.254;2023-03-15T00:55:14;99342.28;;;13.98;38.77
56630;BME280;42502;40.732;-74.254;2023-03-15T00:57:15;99349.59;;;14.02;38.65
56630;BME280;42502;40.732;-74.254;2023-03-15T00:59:16;99344.38;;;14.01;38.31
56630;BME280;42502;40.732;-74.254;2023-03-15T01:01:28;99327.94;;;13.96;38.66
56630;BME280;42502;40.732;-74.254;2023-03-15T01:03:31;99345.56;;;14.00;38.20
56630;BME280;42502;40.732;-74.254;2023-03-15T01:05:32;99347.84;;;13.98;38.66
56630;BME280;42502;40.732;-74.254;2023-03-15T01:07:34;99349.81;;;13.97;38.37
56630;BME280;42502;40.732;-74.254;2023-03-15T01:09:37;99359.78;;;13.98;38.21
56630;BME280;42502;40.732;-74.254;2023-03-15T01:11:38;99361.63;;;13.94;38.22
56630;BME280;42502;40.732;-74.254;2023-03-15T01:13:39;99362.06;;;13.96;38.50
56630;BME280;42502;40.732;-74.254;2023-03-15T01:15:44;99373.88;;;13.93;38.51
56630;BME280;42502;40.732;-74.254;2023-03-15T01:17:46;99386.59;;;13.94;38.44
56630;BME280;42502;40.732;-74.254;2023-03-15T01:19:46;99386.25;;;13.96;38.29
56630;BME280;42502;40.732;-74.254;2023-03-15T01:21:47;99387.75;;;13.93;38.61
56630;BME280;42502;40.732;-74.254;2023-03-15T01:23:54;99398.84;;;13.93;38.75
56630;BME280;42502;40.732;-74.254;2023-03-15T01:26:02;99393.63;;;13.92;38.47
56630;BME280;42502;40.732;-74.254;2023-03-15T01:28:03;99388.44;;;13.90;38.64
56630;BME280;42502;40.732;-74.254;2023-03-15T01:30:05;99386.13;;;13.92;38.73
56630;BME280;42502;40.732;-74.254;2023-03-15T01:32:07;99398.06;;;13.93;38.32
56630;BME280;42502;40.732;-74.254;2023-03-15T01:34:08;99409.50;;;13.91;38.72
56630;BME280;42502;40.732;-74.254;2023-03-15T01:36:10;99392.84;;;13.91;38.81
56630;BME280;42502;40.732;-74.254;2023-03-15T01:38:11;99404.13;;;13.86;38.43
56630;BME280;42502;40.732;-74.254;2023-03-15T01:40:12;99391.09;;;13.86;38.41
56630;BME280;42502;40.732;-74.254;2023-03-15T01:42:13;99415.72;;;13.88;38.62
56630;BME280;42502;40.732;-74.254;2023-03-15T01:44:16;99421.28;;;13.88;38.49
56630;BME280;42502;40.732;-74.254;2023-03-15T01:46:32;99426.00;;;13.88;38.59
56630;BME280;42502;40.732;-74.254;2023-03-15T01:48:42;99426.34;;;13.86;38.56
56630;BME280;42502;40.732;-74.254;2023-03-15T01:50:44;99441.06;;;13.86;38.56
56630;BME280;42502;40.732;-74.254;2023-03-15T01:52:45;99437.78;;;13.84;38.35
56630;BME280;42502;40.732;-74.254;2023-03-15T01:54:53;99455.28;;;13.85;38.20
56630;BME280;42502;40.732;-74.254;2023-03-15T01:57:05;99438.13;;;13.83;38.52
56630;BME280;42502;40.732;-74.254;2023-03-15T01:59:11;99433.88;;;13.85;38.77
56630;BME280;42502;40.732;-74.254;2023-03-15T02:01:15;99450.88;;;13.84;38.51
56630;BME280;42502;40.732;-74.254;2023-03-15T02:03:23;99442.06;;;13.82;38.67
56630;BME280;42502;40.732;-74.254;2023-03-15T02:05:32;99448.09;;;13.84;38.54
56630;BME280;42502;40.732;-74.254;2023-03-15T02:07:36;99454.78;;;13.83;38.50
56630;BME280;42502;40.732;-74.254;2023-03-15T02:12:07;99464.28;;;13.82;38.76
56630;BME280;42502;40.732;-74.254;2023-03-15T02:14:11;99465.41;;;13.81;38.45
56630;BME280;42502;40.732;-74.254;2023-03-15T02:16:16;99468.19;;;13.81;38.63
56630;BME280;42502;40.732;-74.254;2023-03-15T02:18:18;99469.34;;;13.80;38.69
56630;BME280;42502;40.732;-74.254;2023-03-15T02:22:38;99469.34;;;13.80;38.52
56630;BME280;42502;40.732;-74.254;2023-03-15T02:24:53;99485.19;;;13.79;38.40
56630;BME280;42502;40.732;-74.254;2023-03-15T02:26:57;99480.31;;;13.76;38.70
56630;BME280;42502;40.732;-74.254;2023-03-15T02:28:58;99472.44;;;13.78;38.38
56630;BME280;42502;40.732;-74.254;2023-03-15T02:30:59;99466.78;;;13.75;38.59
56630;BME280;42502;40.732;-74.254;2023-03-15T02:33:02;99453.56;;;13.72;38.58
56630;BME280;42502;40.732;-74.254;2023-03-15T02:35:05;99460.06;;;13.76;38.64
56630;BME280;42502;40.732;-74.254;2023-03-15T02:37:11;99465.97;;;13.74;38.46
56630;BME280;42502;40.732;-74.254;2023-03-15T02:39:19;99475.09;;;13.75;38.76
56630;BME280;42502;40.732;-74.254;2023-03-15T02:41:39;99460.06;;;13.76;38.78
56630;BME280;42502;40.732;-74.254;2023-03-15T02:43:42;99461.88;;;13.72;38.73
56630;BME280;42502;40.732;-74.254;2023-03-15T02:45:44;99469.06;;;13.73;38.52
56630;BME280;42502;40.732;-74.254;2023-03-15T02:47:48;99465.97;;;13.74;38.73
56630;BME280;42502;40.732;-74.254;2023-03-15T02:49:50;99474.28;;;13.74;38.73
56630;BME280;42502;40.732;-74.254;2023-03-15T02:51:54;99467.09;;;13.73;38.65
56630;BME280;42502;40.732;-74.254;2023-03-15T02:53:55;99459.59;;;13.74;38.66
56630;BME280;42502;40.732;-74.254;2023-03-15T02:55:56;99463.19;;;13.74;38.41
56630;BME280;42502;40.732;-74.254;2023-03-15T02:57:58;99453.09;;;13.70;38.47
56630;BME280;42502;40.732;-74.254;2023-03-15T02:59:59;99453.91;;;13.70;38.57
56630;BME280;42502;40.732;-74.254;2023-03-15T03:02:06;99457.97;;;13.73;38.53
56630;BME280;42502;40.732;-74.254;2023-03-15T03:04:08;99450.31;;;13.70;38.59
56630;BME280;42502;40.732;-74.254;2023-03-15T03:06:16;99453.56;;;13.72;38.38
56630;BME280;42502;40.732;-74.254;2023-03-15T03:08:17;99461.44;;;13.70;38.66
56630;BME280;42502;40.732;-74.254;2023-03-15T03:10:19;99446.72;;;13.69;38.48
56630;BME280;42502;40.732;-74.254;2023-03-15T03:12:20;99465.81;;;13.71;38.53
56630;BME280;42502;40.732;-74.254;2023-03-15T03:14:21;99457.00;;;13.68;38.27
56630;BME280;42502;40.732;-74.254;2023-03-15T03:16:31;99446.59;;;13.65;38.42
56630;BME280;42502;40.732;-74.254;2023-03-15T03:18:31;99471.34;;;13.71;38.86
56630;BME280;42502;40.732;-74.254;2023-03-15T03:20:36;99476.44;;;13.68;38.76
56630;BME280;42502;40.732;-74.254;2023-03-15T03:22:37;99476.09;;;13.70;38.60
56630;BME280;42502;40.732;-74.254;2023-03-15T03:24:38;99465.34;;;13.68;38.71
56630;BME280;42502;40.732;-74.254;2023-03-15T03:26:39;99469.75;;;13.70;38.75
56630;BME280;42502;40.732;-74.254;2023-03-15T03:28:40;99466.47;;;13.67;38.42
56630;BME280;42502;40.732;-74.254;2023-03-15T03:30:41;99473.66;;;13.68;38.36
56630;BME280;42502;40.732;-74.254;2023-03-15T03:32:41;99461.28;;;13.66;38.44
56630;BME280;42502;40.732;-74.254;2023-03-15T03:34:42;99484.31;;;13.66;38.49
56630;BME280;42502;40.732;-74.254;2023-03-15T03:36:47;99469.13;;;13.64;38.51
56630;BME280;42502;40.732;-74.254;2023-03-15T03:38:48;99483.47;;;13.66;38.90
56630;BME280;42502;40.732;-74.254;2023-03-15T03:40:50;99469.94;;;13.64;38.64
56630;BME280;42502;40.732;-74.254;2023-03-15T03:42:50;99473.19;;;13.66;38.49
56630;BME280;42502;40.732;-74.254;2023-03-15T03:44:51;99469.59;;;13.66;38.72
56630;BME280;42502;40.732;-74.254;2023-03-15T03:46:53;99468.78;;;13.65;38.77
56630;BME280;42502;40.732;-74.254;2023-03-15T03:48:54;99470.75;;;13.65;38.47
56630;BME280;42502;40.732;-74.254;2023-03-15T03:50:56;99466.69;;;13.62;38.37
56630;BME280;42502;40.732;-74.254;2023-03-15T03:52:57;99464.72;;;13.63;38.35
56630;BME280;42502;40.732;-74.254;2023-03-15T03:54:58;99462.28;;;13.61;38.71
56630;BME280;42502;40.732;-74.254;2023-03-15T03:56:59;99467.16;;;13.64;38.54
56630;BME280;42502;40.732;-74.254;2023-03-15T03:59:00;99463.56;;;13.64;38.26
56630;BME280;42502;40.732;-74.254;2023-03-15T04:01:00;99471.06;;;13.63;38.65
56630;BME280;42502;40.732;-74.254;2023-03-15T04:03:01;99457.06;;;13.60;38.44
56630;BME280;42502;40.732;-74.254;2023-03-15T04:05:06;99465.06;;;13.61;38.68
56630;BME280;42502;40.732;-74.254;2023-03-15T04:07:09;99468.97;;;13.60;38.58
56630;BME280;42502;40.732;-74.254;2023-03-15T04:09:16;99456.59;;;13.58;38.73
56630;BME280;42502;40.732;-74.254;2023-03-15T04:11:17;99476.16;;;13.61;38.34
56630;BME280;42502;40.732;-74.254;2023-03-15T04:13:21;99468.16;;;13.60;38.68
56630;BME280;42502;40.732;-74.254;2023-03-15T04:15:23;99470.13;;;13.59;38.69
56630;BME280;42502;40.732;-74.254;2023-03-15T04:17:24;99472.91;;;13.59;38.49
56630;BME280;42502;40.732;-74.254;2023-03-15T04:19:25;99461.81;;;13.59;38.37
56630;BME280;42502;40.732;-74.254;2023-03-15T04:21:26;99465.72;;;13.58;38.19
56630;BME280;42502;40.732;-74.254;2023-03-15T04:23:34;99476.03;;;13.58;38.67
56630;BME280;42502;40.732;-74.254;2023-03-15T04:25:35;99473.25;;;13.58;38.54
56630;BME280;42502;40.732;-74.254;2023-03-15T04:27:35;99463.63;;;13.55;38.51
56630;BME280;42502;40.732;-74.254;2023-03-15T04:29:36;99450.09;;;13.54;38.36
56630;BME280;42502;40.732;-74.254;2023-03-15T04:31:37;99447.97;;;13.50;38.60
56630;BME280;42502;40.732;-74.254;2023-03-15T04:33:38;99455.31;;;13.55;38.29
56630;BME280;42502;40.732;-74.254;2023-03-15T04:35:39;99452.84;;;13.54;38.46
56630;BME280;42502;40.732;-74.254;2023-03-15T04:37:47;99449.75;;;13.55;38.53
56630;BME280;42502;40.732;-74.254;2023-03-15T04:39:47;99452.06;;;13.53;38.19
56630;BME280;42502;40.732;-74.254;2023-03-15T04:41:49;99455.97;;;13.52;38.60
56630;BME280;42502;40.732;-74.254;2023-03-15T04:43:53;99461.53;;;13.52;38.50
56630;BME280;42502;40.732;-74.254;2023-03-15T04:45:54;99467.06;;;13.52;38.22
56630;BME280;42502;40.732;-74.254;2023-03-15T04:47:54;99433.31;;;13.50;38.53
56630;BME280;42502;40.732;-74.254;2023-03-15T04:49:55;99468.22;;;13.51;38.59
56630;BME280;42502;40.732;-74.254;2023-03-15T04:51:56;99463.34;;;13.48;38.35
56630;BME280;42502;40.732;-74.254;2023-03-15T04:53:57;99462.66;;;13.51;38.20
56630;BME280;42502;40.732;-74.254;2023-03-15T04:55:58;99454.22;;;13.47;38.26
56630;BME280;42502;40.732;-74.254;2023-03-15T04:57:59;99460.22;;;13.49;38.65
56630;BME280;42502;40.732;-74.254;2023-03-15T05:00:00;99471.31;;;13.49;38.34
56630;BME280;42502;40.732;-74.254;2023-03-15T05:02:00;99463.34;;;13.48;38.60
56630;BME280;42502;40.732;-74.254;2023-03-15T05:04:01;99458.63;;;13.48;38.34
56630;BME280;42502;40.732;-74.254;2023-03-15T05:06:02;99467.28;;;13.47;38.27
56630;BME280;42502;40.732;-74.254;2023-03-15T05:08:07;99469.56;;;13.45;38.51
56630;BME280;42502;40.732;-74.254;2023-03-15T05:10:08;99467.28;;;13.47;38.40
56630;BME280;42502;40.732;-74.254;2023-03-15T05:12:09;99465.63;;;13.46;38.41
56630;BME280;42502;40.732;-74.254;2023-03-15T05:14:11;99470.38;;;13.45;38.33
56630;BME280;42502;40.732;-74.254;2023-03-15T05:16:12;99482.28;;;13.46;38.30
56630;BME280;42502;40.732;-74.254;2023-03-15T05:18:12;99473.97;;;13.46;38.40
56630;BME280;42502;40.732;-74.254;2023-03-15T05:20:16;99482.63;;;13.44;38.41
56630;BME280;42502;40.732;-74.254;2023-03-15T05:22:17;99473.50;;;13.44;38.22
56630;BME280;42502;40.732;-74.254;2023-03-15T05:24:19;99489.63;;;13.42;38.43
56630;BME280;42502;40.732;-74.254;2023-03-15T05:26:20;99489.16;;;13.40;38.24
56630;BME280;42502;40.732;-74.254;2023-03-15T05:28:22;99501.25;;;13.44;38.42
56630;BME280;42502;40.732;-74.254;2023-03-15T05:30:26;99496.81;;;13.43;38.27
56630;BME280;42502;40.732;-74.254;2023-03-15T05:32:28;99513.00;;;13.41;38.35
56630;BME280;42502;40.732;-74.254;2023-03-15T05:34:33;99517.72;;;13.40;38.35
56630;BME280;42502;40.732;-74.254;2023-03-15T05:36:37;99510.91;;;13.38;38.21
56630;BME280;42502;40.732;-74.254;2023-03-15T05:38:38;99508.25;;;13.41;38.46
56630;BME280;42502;40.732;-74.254;2023-03-15T05:40:43;99510.06;;;13.37;38.12
56630;BME280;42502;40.732;-74.254;2023-03-15T05:42:44;99508.59;;;13.40;38.27
56630;BME280;42502;40.732;-74.254;2023-03-15T05:44:45;99526.03;;;13.40;38.50
56630;BME280;42502;40.732;-74.254;2023-03-15T05:46:46;99522.47;;;13.40;38.14
56630;BME280;42502;40.732;-74.254;2023-03-15T05:48:47;99520.34;;;13.37;38.16
56630;BME280;42502;40.732;-74.254;2023-03-15T05:50:48;99526.38;;;13.39;38.41
56630;BME280;42502;40.732;-74.254;2023-03-15T05:52:50;99527.22;;;13.39;38.08
56630;BME280;42502;40.732;-74.254;2023-03-15T05:54:51;99529.16;;;13.39;38.22
56630;BME280;42502;40.732;-74.254;2023-03-15T05:56:52;99536.66;;;13.38;38.14
56630;BME280;42502;40.732;-74.254;2023-03-15T05:58:52;99525.91;;;13.37;38.13
56630;BME280;42502;40.732;-74.254;2023-03-15T06:00:53;99528.22;;;13.35;38.23
56630;BME280;42502;40.732;-74.254;2023-03-15T06:02:54;99536.19;;;13.36;38.48
56630;BME280;42502;40.732;-74.254;2023-03-15T06:04:55;99541.75;;;13.36;38.27
56630;BME280;42502;40.732;-74.254;2023-03-15T06:06:56;99540.09;;;13.35;38.08
56630;BME280;42502;40.732;-74.254;2023-03-15T06:08:57;99534.06;;;13.33;38.17
56630;BME280;42502;40.732;-74.254;2023-03-15T06:10:58;99534.91;;;13.33;38.20
56630;BME280;42502;40.732;-74.254;2023-03-15T06:12:59;99539.59;;;13.33;38.05
56630;BME280;42502;40.732;-74.254;2023-03-15T06:14:59;99532.41;;;13.32;38.04
56630;BME280;42502;40.732;-74.254;2023-03-15T06:17:00;99530.16;;;13.34;38.24
56630;BME280;42502;40.732;-74.254;2023-03-15T06:19:01;99538.47;;;13.25;38.24
56630;BME280;42502;40.732;-74.254;2023-03-15T06:21:05;99535.53;;;13.30;38.36
56630;BME280;42502;40.732;-74.254;2023-03-15T06:23:06;99551.00;;;13.31;37.99
56630;BME280;42502;40.732;-74.254;2023-03-15T06:25:07;99548.22;;;13.31;38.30
56630;BME280;42502;40.732;-74.254;2023-03-15T06:27:09;99541.88;;;13.31;38.05
56630;BME280;42502;40.732;-74.254;2023-03-15T06:29:09;99540.56;;;13.28;38.08
56630;BME280;42502;40.732;-74.254;2023-03-15T06:31:12;99546.13;;;13.28;38.30
56630;BME280;42502;40.732;-74.254;2023-03-15T06:33:13;99550.53;;;13.29;38.30
56630;BME280;42502;40.732;-74.254;2023-03-15T06:35:23;99546.78;;;13.25;38.18
56630;BME280;42502;40.732;-74.254;2023-03-15T06:37:24;99557.22;;;13.28;38.05
56630;BME280;42502;40.732;-74.254;2023-03-15T06:39:25;99549.09;;;13.23;38.23
56630;BME280;42502;40.732;-74.254;2023-03-15T06:41:25;99545.97;;;13.25;37.98
56630;BME280;42502;40.732;-74.254;2023-03-15T06:43:27;99561.50;;;13.26;38.17
56630;BME280;42502;40.732;-74.254;2023-03-15T06:45:28;99567.84;;;13.26;37.95
56630;BME280;42502;40.732;-74.254;2023-03-15T06:47:31;99579.75;;;13.27;38.35
56630;BME280;42502;40.732;-74.254;2023-03-15T06:49:32;99584.47;;;13.26;38.33
56630;BME280;42502;40.732;-74.254;2023-03-15T06:51:33;99571.75;;;13.25;38.31
56630;BME280;42502;40.732;-74.254;2023-03-15T06:53:34;99571.75;;;13.25;38.04
56630;BME280;42502;40.732;-74.254;2023-03-15T06:55:35;99548.28;;;13.23;38.23
56630;BME280;42502;40.732;-74.254;2023-03-15T06:57:36;99545.00;;;13.21;38.15
56630;BME280;42502;40.732;-74.254;2023-03-15T06:59:37;99551.38;;;13.21;38.23
56630;BME280;42502;40.732;-74.254;2023-03-15T07:01:37;99556.44;;;13.19;37.91
56630;BME280;42502;40.732;-74.254;2023-03-15T07:03:39;99558.53;;;13.22;37.90
56630;BME280;42502;40.732;-74.254;2023-03-15T07:05:40;99554.81;;;13.18;38.16
56630;BME280;42502;40.732;-74.254;2023-03-15T07:07:41;99554.16;;;13.21;37.99
56630;BME280;42502;40.732;-74.254;2023-03-15T07:09:41;99555.63;;;13.19;38.13
56630;BME280;42502;40.732;-74.254;2023-03-15T07:11:42;99551.72;;;13.20;38.01
56630;BME280;42502;40.732;-74.254;2023-03-15T07:13:43;99553.66;;;13.19;38.13
56630;BME280;42502;40.732;-74.254;2023-03-15T07:15:44;99568.34;;;13.20;37.72
56630;BME280;42502;40.732;-74.254;2023-03-15T07:17:47;99535.41;;;13.18;37.72
56630;BME280;42502;40.732;-74.254;2023-03-15T07:19:48;99568.53;;;13.14;37.99
56630;BME280;42502;40.732;-74.254;2023-03-15T07:21:48;99555.97;;;13.17;37.79
56630;BME280;42502;40.732;-74.254;2023-03-15T07:23:49;99549.59;;;13.17;37.89
56630;BME280;42502;40.732;-74.254;2023-03-15T07:25:50;99546.00;;;13.16;38.07
56630;BME280;42502;40.732;-74.254;2023-03-15T07:27:52;99549.94;;;13.15;37.95
56630;BME280;42502;40.732;-74.254;2023-03-15T07:29:53;99550.59;;;13.12;37.97
56630;BME280;42502;40.732;-74.254;2023-03-15T07:31:55;99549.09;;;13.14;38.03
56630;BME280;42502;40.732;-74.254;2023-03-15T07:33:56;99551.41;;;13.12;37.77
56630;BME280;42502;40.732;-74.254;2023-03-15T07:35:57;99555.31;;;13.11;38.07
56630;BME280;42502;40.732;-74.254;2023-03-15T07:38:03;99549.16;;;13.06;37.88
56630;BME280;42502;40.732;-74.254;2023-03-15T07:40:07;99563.16;;;13.09;37.90
56630;BME280;42502;40.732;-74.254;2023-03-15T07:42:12;99552.88;;;13.10;37.97
56630;BME280;42502;40.732;-74.254;2023-03-15T07:44:12;99557.47;;;13.06;37.80
56630;BME280;42502;40.732;-74.254;2023-03-15T07:46:13;99569.50;;;13.10;37.67
56630;BME280;42502;40.732;-74.254;2023-03-15T07:48:15;99553.53;;;13.07;37.72
56630;BME280;42502;40.732;-74.254;2023-03-15T07:50:16;99558.28;;;13.06;37.96
56630;BME280;42502;40.732;-74.254;2023-03-15T07:52:17;99553.22;;;13.08;38.00
56630;BME280;42502;40.732;-74.254;2023-03-15T07:54:17;99549.63;;;13.08;37.70
56630;BME280;42502;40.732;-74.254;2023-03-15T07:56:22;99548.81;;;13.07;37.66
56630;BME280;42502;40.732;-74.254;2023-03-15T07:58:23;99549.16;;;13.06;37.78
56630;BME280;42502;40.732;-74.254;2023-03-15T08:00:24;99541.50;;;13.03;37.63
56630;BME280;42502;40.732;-74.254;2023-03-15T08:02:25;99546.72;;;13.04;37.78
56630;BME280;42502;40.732;-74.254;2023-03-15T08:04:26;99548.31;;;13.05;37.95
56630;BME280;42502;40.732;-74.254;2023-03-15T08:06:27;99554.84;;;13.01;37.63
56630;BME280;42502;40.732;-74.254;2023-03-15T08:08:27;99548.50;;;13.00;37.86
56630;BME280;42502;40.732;-74.254;2023-03-15T08:10:28;99539.69;;;12.98;37.84
56630;BME280;42502;40.732;-74.254;2023-03-15T08:12:29;99540.66;;;13.02;37.63
56630;BME280;42502;40.732;-74.254;2023-03-15T08:14:30;99540.53;;;12.98;37.72
56630;BME280;42502;40.732;-74.254;2023-03-15T08:16:34;99554.53;;;13.02;37.51
56630;BME280;42502;40.732;-74.254;2023-03-15T08:18:35;99542.78;;;12.96;37.57
56630;BME280;42502;40.732;-74.254;2023-03-15T08:20:39;99565.94;;;13.01;37.75
56630;BME280;42502;40.732;-74.254;2023-03-15T08:22:40;99563.50;;;12.99;37.56
56630;BME280;42502;40.732;-74.254;2023-03-15T08:24:46;99580.13;;;12.99;37.66
56630;BME280;42502;40.732;-74.254;2023-03-15T08:26:50;99581.28;;;12.98;37.82
56630;BME280;42502;40.732;-74.254;2023-03-15T08:28:54;99590.44;;;12.98;37.83
56630;BME280;42502;40.732;-74.254;2023-03-15T08:30:55;99592.69;;;12.96;37.85
56630;BME280;42502;40.732;-74.254;2023-03-15T08:32:56;99587.81;;;12.93;37.64
56630;BME280;42502;40.732;-74.254;2023-03-15T08:34:57;99598.91;;;12.93;37.69
56630;BME280;42502;40.732;-74.254;2023-03-15T08:36:58;99590.25;;;12.95;37.77
56630;BME280;42502;40.732;-74.254;2023-03-15T08:38:58;99589.44;;;12.94;37.82
56630;BME280;42502;40.732;-74.254;2023-03-15T08:41:00;99600.06;;;12.92;37.78
56630;BME280;42502;40.732;-74.254;2023-03-15T08:43:01;99601.19;;;12.91;37.60
56630;BME280;42502;40.732;-74.254;2023-03-15T08:45:06;99604.75;;;12.92;37.73
56630;BME280;42502;40.732;-74.254;2023-03-15T08:47:07;99602.00;;;12.92;37.72
56630;BME280;42502;40.732;-74.254;2023-03-15T08:49:08;99602.00;;;12.92;37.43
56630;BME280;42502;40.732;-74.254;2023-03-15T08:51:09;99605.94;;;12.91;37.72
56630;BME280;42502;40.732;-74.254;2023-03-15T08:53:10;99618.97;;;12.90;37.29
56630;BME280;42502;40.732;-74.254;2023-03-15T08:55:11;99617.03;;;12.91;37.41
56630;BME280;42502;40.732;-74.254;2023-03-15T08:57:16;99617.69;;;12.88;37.59
56630;BME280;42502;40.732;-74.254;2023-03-15T08:59:17;99641.47;;;12.89;37.40
56630;BME280;42502;40.732;-74.254;2023-03-15T09:01:18;99621.09;;;12.85;37.83
56630;BME280;42502;40.732;-74.254;2023-03-15T09:03:19;99643.75;;;12.87;37.54
56630;BME280;42502;40.732;-74.254;2023-03-15T09:05:23;99638.88;;;12.84;37.43
56630;BME280;42502;40.732;-74.254;2023-03-15T09:07:24;99645.72;;;12.86;37.57
56630;BME280;42502;40.732;-74.254;2023-03-15T09:09:27;99643.59;;;12.83;37.57
56630;BME280;42502;40.732;-74.254;2023-03-15T09:11:28;99657.47;;;12.83;37.38
56630;BME280;42502;40.732;-74.254;2023-03-15T09:13:30;99658.28;;;12.84;37.85
56630;BME280;42502;40.732;-74.254;2023-03-15T09:15:36;99675.22;;;12.82;37.66
56630;BME280;42502;40.732;-74.254;2023-03-15T09:17:38;99672.47;;;12.82;37.18
56630;BME280;42502;40.732;-74.254;2023-03-15T09:19:38;99672.47;;;12.82;37.52
56630;BME280;42502;40.732;-74.254;2023-03-15T09:21:39;99674.75;;;12.80;37.42
56630;BME280;42502;40.732;-74.254;2023-03-15T09:23:40;99674.25;;;12.78;37.37
56630;BME280;42502;40.732;-74.254;2023-03-15T09:25:41;99680.78;;;12.82;37.63
56630;BME280;42502;40.732;-74.254;2023-03-15T09:27:42;99675.88;;;12.79;37.75
56630;BME280;42502;40.732;-74.254;2023-03-15T09:29:43;99690.53;;;12.79;37.35
56630;BME280;42502;40.732;-74.254;2023-03-15T09:31:44;99700.81;;;12.79;37.68
56630;BME280;42502;40.732;-74.254;2023-03-15T09:33:44;99695.28;;;12.79;37.39
56630;BME280;42502;40.732;-74.254;2023-03-15T09:35:46;99699.03;;;12.74;37.63
56630;BME280;42502;40.732;-74.254;2023-03-15T09:37:48;99702.59;;;12.75;37.58
56630;BME280;42502;40.732;-74.254;2023-03-15T09:39:52;99716.47;;;12.75;37.64
56630;BME280;42502;40.732;-74.254;2023-03-15T09:41:57;99714.19;;;12.77;37.62
56630;BME280;42502;40.732;-74.254;2023-03-15T09:46:37;99708.78;;;12.72;37.20
56630;BME280;42502;40.732;-74.254;2023-03-15T09:48:51;99716.47;;;12.75;37.34
56630;BME280;42502;40.732;-74.254;2023-03-15T09:50:59;99710.75;;;12.71;37.40
56630;BME280;42502;40.732;-74.254;2023-03-15T09:55:29;99738.97;;;12.73;37.51
56630;BME280;42502;40.732;-74.254;2023-03-15T09:57:57;99737.66;;;12.71;37.54
56630;BME280;42502;40.732;-74.254;2023-03-15T09:59:59;99745.66;;;12.72;37.23
56630;BME280;42502;40.732;-74.254;2023-03-15T10:02:37;99739.94;;;12.69;37.30
56630;BME280;42502;40.732;-74.254;2023-03-15T10:04:38;99754.44;;;12.66;37.44
56630;BME280;42502;40.732;-74.254;2023-03-15T10:06:46;99758.53;;;12.68;37.57
56630;BME280;42502;40.732;-74.254;2023-03-15T10:08:57;99744.34;;;12.70;37.48
56630;BME280;42502;40.732;-74.254;2023-03-15T10:11:32;99760.47;;;12.68;37.61
56630;BME280;42502;40.732;-74.254;2023-03-15T10:16:39;99771.88;;;12.66;37.38
56630;BME280;42502;40.732;-74.254;2023-03-15T10:21:11;99766.47;;;12.61;37.38
56630;BME280;42502;40.732;-74.254;2023-03-15T10:25:39;99775.28;;;12.63;37.34
56630;BME280;42502;40.732;-74.254;2023-03-15T10:28:03;99774.16;;;12.64;37.56
56630;BME280;42502;40.732;-74.254;2023-03-15T10:30:27;99773.66;;;12.62;37.22
56630;BME280;42502;40.732;-74.254;2023-03-15T10:32:36;99772.84;;;12.61;37.46
56630;BME280;42502;40.732;-74.254;2023-03-15T10:34:38;99768.44;;;12.60;37.20
56630;BME280;42502;40.732;-74.254;2023-03-15T10:39:10;99784.25;;;12.60;37.22
56630;BME280;42502;40.732;-74.254;2023-03-15T10:41:17;99796.16;;;12.60;37.41
56630;BME280;42502;40.732;-74.254;2023-03-15T10:43:32;99795.31;;;12.60;37.33
56630;BME280;42502;40.732;-74.254;2023-03-15T10:45:35;99800.06;;;12.59;37.10
56630;BME280;42502;40.732;-74.254;2023-03-15T10:47:42;99796.81;;;12.57;37.53
56630;BME280;42502;40.732;-74.254;2023-03-15T10:49:43;99800.69;;;12.56;37.44
56630;BME280;42502;40.732;-74.254;2023-03-15T10:51:47;99805.44;;;12.56;37.51
56630;BME280;42502;40.732;-74.254;2023-03-15T10:54:12;99816.19;;;12.57;37.49
56630;BME280;42502;40.732;-74.254;2023-03-15T10:56:21;99797.44;;;12.54;37.38